Time;durP1;ratioP1;P1;durP2;ratioP2;P2;SDS_P1;SDS_P2;PMS_P1;PMS_P2;Temp;Humidity;BMP_temperature;BMP_pressure;BME280_temperature;BME280_humidity;BME280_pressure;Samples;Min_cycle;Max_cycle;Signal;HPM_P1;HPM_P2
2022/11/10 00:01:58;;;;;;;28.10;22.25;;;23.90;85.50;;;;;;1808410;79;21123;-88
2022/11/10 00:04:29;;;;;;;28.87;22.05;;;23.90;85.50;;;;;;1764038;81;21147;-89
2022/11/10 00:07:00;;;;;;;27.05;21.37;;;23.90;85.80;;;;;;1812495;78;21189;-88
2022/11/10 00:09:31;;;;;;;29.20;21.42;;;24.00;86.00;;;;;;1767122;81;21173;-89
2022/11/10 00:12:02;;;;;;;36.88;20.80;;;24.00;85.70;;;;;;1806967;79;21203;-88
2022/11/10 00:17:21;;;;;;;30.35;20.90;;;24.00;85.50;;;;;;1754205;80;21170;-91
2022/11/10 00:20:01;;;;;;;29.12;21.42;;;24.10;85.90;;;;;;1801060;78;21170;-88
2022/11/10 00:22:46;;;;;;;;;;;;;;;;;;;;;
2022/11/10 00:25:12;;;;;;;26.27;19.32;;;24.20;85.40;;;;;;1799337;79;21488;-75
2022/11/10 00:27:44;;;;;;;26.27;19.15;;;24.30;85.50;;;;;;1806708;79;21667;-77
2022/11/10 00:30:16;;;;;;;28.90;18.87;;;24.40;85.00;;;;;;1754184;81;21262;-78
2022/11/10 00:32:47;;;;;;;26.42;19.45;;;24.50;84.00;;;;;;1810194;79;21771;-78
2022/11/10 00:35:18;;;;;;;31.23;21.10;;;24.60;84.40;;;;;;1793950;79;21189;-77
2022/11/10 00:37:50;;;;;;;28.35;20.48;;;24.70;84.60;;;;;;1802588;79;21155;-78
2022/11/10 00:40:22;;;;;;;25.77;19.95;;;24.70;84.30;;;;;;1793052;79;21153;-78
2022/11/10 00:42:53;;;;;;;24.87;19.25;;;24.80;84.00;;;;;;1788150;79;21254;-77
2022/11/10 00:45:25;;;;;;;31.62;19.95;;;24.80;84.00;;;;;;1796916;79;21226;-77
2022/11/10 00:47:56;;;;;;;27.05;19.35;;;24.90;84.10;;;;;;1799028;79;21164;-76
2022/11/10 00:50:27;;;;;;;25.95;18.07;;;24.90;84.10;;;;;;1809265;79;22455;-76
2022/11/10 00:52:58;;;;;;;30.08;18.40;;;25.00;83.90;;;;;;1807253;79;21657;-79
2022/11/10 00:55:30;;;;;;;25.35;18.82;;;25.00;83.70;;;;;;1759052;81;21083;-77
2022/11/10 00:58:01;;;;;;;23.90;17.85;;;25.10;83.60;;;;;;1807489;79;21212;-78
2022/11/10 01:00:32;;;;;;;25.00;17.23;;;25.20;83.40;;;;;;1799076;79;21215;-79
2022/11/10 01:03:03;;;;;;;24.80;17.65;;;25.20;83.20;;;;;;1810068;77;21813;-78
2022/11/10 01:05:38;;;;;;;23.70;18.10;;;25.30;83.60;;;;;;1752261;81;21244;-79
2022/11/10 01:08:09;;;;;;;25.25;18.57;;;25.30;83.80;;;;;;1758690;81;21769;-79
2022/11/10 01:10:40;;;;;;;23.80;18.15;;;25.30;83.50;;;;;;1766992;80;21268;-78
2022/11/10 01:13:12;;;;;;;26.07;19.60;;;25.30;83.60;;;;;;1759504;80;21621;-78
2022/11/10 01:15:43;;;;;;;24.07;17.55;;;25.30;83.40;;;;;;1766890;81;21170;-78
2022/11/10 01:18:14;;;;;;;25.10;17.52;;;25.40;83.40;;;;;;1764818;80;21178;-79
2022/11/10 01:20:46;;;;;;;28.05;18.30;;;25.40;83.90;;;;;;1765933;80;21134;-79
2022/11/10 01:23:18;;;;;;;25.20;18.95;;;25.50;83.00;;;;;;1765368;80;21705;-80
2022/11/10 01:25:57;;;;;;;27.70;19.10;;;25.50;83.30;;;;;;1757326;80;21177;-78
2022/11/10 01:28:26;;;;;;;34.08;18.30;;;25.60;83.00;;;;;;1764443;80;21253;-79
2022/11/10 01:31:02;;;;;;;25.37;18.15;;;25.70;83.00;;;;;;1759426;80;21182;-77
2022/11/10 01:33:34;;;;;;;21.87;17.23;;;25.70;82.70;;;;;;1760662;80;21215;-78
2022/11/10 01:36:06;;;;;;;23.22;16.20;;;25.80;82.50;;;;;;1802849;79;21201;-80
2022/11/10 01:38:41;;;;;;;21.60;15.80;;;25.90;82.40;;;;;;1778178;78;21224;-79
2022/11/10 01:41:16;;;;;;;21.52;16.73;;;25.90;82.30;;;;;;1799994;78;21186;-80
2022/11/10 01:43:47;;;;;;;21.65;16.67;;;25.90;82.10;;;;;;1800537;78;21217;-78
2022/11/10 01:46:20;;;;;;;21.30;15.70;;;25.90;82.40;;;;;;1806164;78;21229;-79
2022/11/10 01:49:02;;;;;;;21.07;15.00;;;26.00;82.00;;;;;;1761603;80;21190;-79
2022/11/10 01:51:36;;;;;;;18.45;14.80;;;26.00;82.00;;;;;;1764706;80;21158;-79
2022/11/10 01:54:42;;;;;;;19.75;14.03;;;26.00;81.90;;;;;;1805203;78;21201;-79
2022/11/10 01:57:11;;;;;;;17.05;14.20;;;26.10;81.80;;;;;;1734993;80;21217;-79
2022/11/10 01:59:45;;;;;;;16.93;14.28;;;26.10;81.50;;;;;;1750767;80;21647;-76
2022/11/10 02:02:32;;;;;;;16.70;14.13;;;26.20;81.70;;;;;;1778535;78;21194;-78
2022/11/10 02:05:09;;;;;;;20.05;14.73;;;26.20;81.50;;;;;;1795015;78;21115;-81
2022/11/10 02:07:46;;;;;;;21.55;15.00;;;26.20;81.80;;;;;;1803368;78;21680;-78
2022/11/10 02:10:18;;;;;;;18.85;13.70;;;26.30;81.90;;;;;;1783472;79;21674;-77
2022/11/10 02:12:51;;;;;;;16.52;13.98;;;26.30;81.70;;;;;;1782130;79;21173;-77
2022/11/10 02:15:22;;;;;;;16.02;12.55;;;26.30;81.60;;;;;;1775786;79;21149;-79
2022/11/10 02:17:53;;;;;;;16.27;12.88;;;26.40;81.30;;;;;;1782404;79;21211;-77
2022/11/10 02:20:24;;;;;;;20.70;13.83;;;26.40;81.30;;;;;;1816876;77;21557;-78
2022/11/10 02:22:55;;;;;;;17.92;14.28;;;26.50;81.10;;;;;;1815591;77;21224;-78
2022/11/10 02:25:28;;;;;;;17.87;13.65;;;26.50;81.00;;;;;;1812925;77;21186;-78
2022/11/10 02:28:00;;;;;;;21.05;13.83;;;26.50;80.50;;;;;;1812719;77;21665;-78
2022/11/10 02:30:31;;;;;;;17.75;14.40;;;26.60;80.60;;;;;;1813395;77;21693;-80
2022/11/10 02:33:07;;;;;;;20.30;14.28;;;26.70;80.30;;;;;;1824616;77;21123;-79
2022/11/10 02:35:35;;;;;;;17.32;13.55;;;26.70;80.20;;;;;;1792592;78;21146;-79
2022/11/10 02:38:06;;;;;;;20.25;14.45;;;26.70;80.40;;;;;;1818993;77;21582;-76
2022/11/10 02:40:37;;;;;;;15.98;13.70;;;26.80;80.40;;;;;;1815536;77;21162;-79
2022/11/10 02:43:10;;;;;;;21.10;14.98;;;26.90;80.30;;;;;;1800510;79;21663;-78
2022/11/10 02:45:44;;;;;;;18.80;15.45;;;26.90;80.00;;;;;;1763976;79;21266;-78
2022/11/10 02:48:16;;;;;;;16.10;14.07;;;27.00;80.00;;;;;;1746806;81;21627;-76
2022/11/10 02:50:47;;;;;;;18.67;14.63;;;27.10;79.70;;;;;;1751374;81;21213;-78
2022/11/10 02:53:18;;;;;;;16.57;14.55;;;27.10;79.30;;;;;;1773349;80;21791;-80
2022/11/10 02:55:49;;;;;;;19.35;15.25;;;27.20;79.20;;;;;;1748258;81;21170;-80
2022/11/10 02:58:20;;;;;;;20.12;14.98;;;27.20;79.40;;;;;;1764173;80;21211;-77
2022/11/10 03:00:51;;;;;;;20.68;15.72;;;27.30;79.40;;;;;;1754773;81;21161;-78
2022/11/10 03:03:23;;;;;;;23.95;16.45;;;27.30;79.30;;;;;;1767157;79;21689;-77
2022/11/10 03:05:54;;;;;;;17.85;14.25;;;27.40;79.10;;;;;;1772851;79;21227;-80
2022/11/10 03:08:25;;;;;;;25.82;15.03;;;27.50;79.30;;;;;;1773501;79;21176;-82
2022/11/10 03:10:57;;;;;;;23.90;15.72;;;27.50;79.10;;;;;;1798652;78;21191;-82
2022/11/10 03:13:29;;;;;;;18.77;14.13;;;27.70;79.60;;;;;;1768010;80;21705;-83
2022/11/10 03:16:03;;;;;;;21.82;15.68;;;27.70;78.90;;;;;;1745802;81;21234;-80
2022/11/10 03:18:34;;;;;;;20.57;16.30;;;27.90;78.60;;;;;;1765859;80;21158;-78
2022/11/10 03:21:05;;;;;;;21.73;16.90;;;28.00;78.60;;;;;;1764874;81;21237;-82
2022/11/10 03:23:37;;;;;;;26.48;15.70;;;28.00;78.50;;;;;;1766751;80;21163;-80
2022/11/10 03:26:08;;;;;;;21.27;15.72;;;28.20;78.20;;;;;;1793891;78;21109;-79
2022/11/10 03:28:41;;;;;;;19.27;15.85;;;28.20;78.00;;;;;;1765318;80;21703;-77
2022/11/10 03:31:12;;;;;;;20.82;15.60;;;28.30;78.00;;;;;;1798058;79;21168;-78
2022/11/10 03:33:43;;;;;;;20.55;15.58;;;28.40;77.60;;;;;;1764493;81;21180;-78
2022/11/10 03:36:14;;;;;;;19.90;15.28;;;28.50;77.40;;;;;;1767088;81;21212;-77
2022/11/10 03:38:45;;;;;;;20.27;15.70;;;28.60;77.10;;;;;;1768665;80;21570;-79
2022/11/10 03:41:16;;;;;;;20.48;15.13;;;28.70;76.80;;;;;;1762809;80;21199;-78
2022/11/10 03:43:49;;;;;;;18.07;15.28;;;28.80;76.60;;;;;;1768888;80;21180;-79
2022/11/10 03:46:20;;;;;;;20.37;15.30;;;28.90;76.40;;;;;;1761112;81;21207;-79
2022/11/10 03:48:51;;;;;;;21.50;15.30;;;29.00;76.50;;;;;;1771842;81;21115;-79
2022/11/10 03:51:23;;;;;;;18.82;14.68;;;29.10;76.30;;;;;;1771240;80;21687;-79
2022/11/10 03:53:54;;;;;;;16.42;13.88;;;29.20;75.20;;;;;;1774186;81;21148;-79
2022/11/10 03:56:25;;;;;;;16.35;13.30;;;29.30;74.50;;;;;;1778184;80;21188;-79
2022/11/10 03:58:56;;;;;;;16.07;12.70;;;29.40;73.70;;;;;;1788934;79;21164;-78
2022/11/10 04:01:27;;;;;;;15.68;12.90;;;29.50;73.30;;;;;;1768151;80;21698;-80
2022/11/10 04:03:58;;;;;;;15.43;12.73;;;29.50;72.80;;;;;;1771642;80;21253;-80
2022/11/10 04:09:19;;;;;;;18.00;13.53;;;29.70;72.20;;;;;;1781098;80;21181;-80
2022/11/10 04:17:27;;;;;;;16.12;12.58;;;30.00;71.40;;;;;;1779025;80;21091;-80
2022/11/10 04:19:58;;;;;;;13.93;11.15;;;30.10;70.80;;;;;;1763106;79;21096;-81
2022/11/10 04:25:20;;;;;;;13.20;11.50;;;30.20;70.20;;;;;;1752590;81;21610;-79
2022/11/10 04:27:51;;;;;;;13.78;11.50;;;30.30;69.30;;;;;;1742380;82;21233;-80
2022/11/10 04:30:22;;;;;;;14.73;10.53;;;30.40;69.00;;;;;;1752045;81;21253;-81
2022/11/10 04:32:54;;;;;;;12.58;11.12;;;30.50;69.00;;;;;;1725788;80;21228;-81
2022/11/10 04:35:25;;;;;;;13.03;11.00;;;30.60;75.80;;;;;;1772356;80;21609;-81
2022/11/10 04:37:56;;;;;;;13.88;11.15;;;30.50;69.00;;;;;;1771497;79;21188;-79
2022/11/10 04:40:29;;;;;;;13.20;11.00;;;30.60;68.40;;;;;;1778471;80;21101;-80
2022/11/10 04:43:03;;;;;;;15.05;10.85;;;30.70;68.00;;;;;;1766898;80;21101;-80
2022/11/10 04:45:34;;;;;;;14.68;10.58;;;30.80;66.20;;;;;;1750889;81;21256;-80
2022/11/10 04:48:05;;;;;;;14.85;11.50;;;30.80;66.40;;;;;;1754079;81;21180;-80
2022/11/10 04:50:36;;;;;;;12.73;11.03;;;30.80;66.70;;;;;;1760525;81;21103;-80
2022/11/10 04:53:07;;;;;;;12.93;11.38;;;30.90;66.40;;;;;;1755503;80;21652;-82
2022/11/10 04:55:45;;;;;;;12.73;10.68;;;31.00;67.00;;;;;;1735168;81;21227;-81
2022/11/10 04:58:17;;;;;;;13.88;10.93;;;31.00;66.20;;;;;;1745002;81;21196;-80
2022/11/10 05:00:47;;;;;;;13.28;10.45;;;31.00;66.90;;;;;;1725652;83;21254;-81
2022/11/10 05:03:19;;;;;;;12.07;10.48;;;31.10;66.10;;;;;;1753651;80;21281;-79
2022/11/10 05:05:50;;;;;;;11.57;10.35;;;31.10;65.90;;;;;;1757932;81;21687;-80
2022/11/10 05:08:21;;;;;;;13.98;10.38;;;31.20;65.30;;;;;;1819100;79;21232;-81
2022/11/10 05:10:52;;;;;;;14.60;10.23;;;31.20;65.30;;;;;;1730471;82;21619;-80
2022/11/10 05:13:23;;;;;;;14.05;10.78;;;31.20;65.90;;;;;;1787030;79;21487;-80
2022/11/10 05:15:54;;;;;;;14.55;11.00;;;31.20;65.70;;;;;;1776161;81;21284;-80
2022/11/10 05:18:25;;;;;;;13.65;10.65;;;31.30;64.90;;;;;;1778960;79;21653;-80
2022/11/10 05:20:56;;;;;;;15.68;10.75;;;31.30;65.20;;;;;;1776148;81;21210;-81
2022/11/10 05:23:40;;;;;;;12.30;11.03;;;31.40;64.70;;;;;;1776151;81;21191;-82
2022/11/10 05:26:13;;;;;;;13.75;10.72;;;31.40;64.00;;;;;;1776181;78;21594;-81
2022/11/10 05:28:45;;;;;;;13.38;11.43;;;31.50;65.20;;;;;;1776082;81;21702;-81
2022/11/10 05:31:16;;;;;;;11.80;10.60;;;31.50;64.10;;;;;;1776036;81;21135;-80
2022/11/10 05:33:47;;;;;;;12.28;10.13;;;31.50;63.40;;;;;;1807521;79;21166;-81
2022/11/10 05:36:18;;;;;;;12.47;10.32;;;31.50;64.00;;;;;;1788930;79;21162;-79
2022/11/10 05:38:49;;;;;;;14.15;10.28;;;31.50;64.00;;;;;;1770588;81;21261;-80
2022/11/10 05:41:20;;;;;;;15.13;10.80;;;31.50;64.20;;;;;;1770564;81;21154;-81
2022/11/10 05:43:54;;;;;;;13.05;10.35;;;31.60;64.30;;;;;;1770409;81;21192;-81
2022/11/10 05:46:25;;;;;;;11.10;9.93;;;31.60;63.70;;;;;;1770471;81;21604;-81
2022/11/10 05:48:56;;;;;;;11.50;9.83;;;31.60;63.10;;;;;;1789729;80;21146;-80
2022/11/10 05:51:27;;;;;;;13.65;9.95;;;31.70;63.10;;;;;;1777060;79;21195;-80
2022/11/10 05:53:58;;;;;;;12.47;10.18;;;31.70;63.10;;;;;;1777263;79;22072;-81
2022/11/10 05:56:28;;;;;;;14.35;10.08;;;31.70;62.60;;;;;;1818829;79;21290;-81
2022/11/10 05:58:59;;;;;;;10.95;9.85;;;31.70;62.50;;;;;;1819126;79;21162;-80
2022/11/10 06:01:33;;;;;;;11.40;9.80;;;31.80;62.80;;;;;;1819370;79;21178;-81
2022/11/10 06:04:04;;;;;;;12.78;9.95;;;31.80;62.30;;;;;;1819605;78;21146;-81
2022/11/10 06:06:35;;;;;;;13.88;9.58;;;31.80;62.00;;;;;;1824590;78;21688;-81
2022/11/10 06:09:06;;;;;;;11.28;9.68;;;31.80;62.10;;;;;;1825163;78;21151;-81
2022/11/10 06:11:37;;;;;;;11.08;9.90;;;31.80;62.30;;;;;;1827234;77;21233;-80
2022/11/10 06:14:08;;;;;;;13.18;10.20;;;31.60;61.50;;;;;;1824894;78;21156;-81
2022/11/10 06:16:39;;;;;;;12.15;9.48;;;31.90;62.70;;;;;;1823449;79;21238;-80
2022/11/10 06:19:10;;;;;;;12.25;9.63;;;31.90;62.40;;;;;;1821838;78;21234;-81
2022/11/10 06:21:41;;;;;;;11.53;10.20;;;32.00;62.20;;;;;;1803089;79;21174;-81
2022/11/10 06:24:12;;;;;;;11.30;10.10;;;32.00;62.10;;;;;;1825968;78;21115;-80
2022/11/10 06:26:44;;;;;;;11.50;10.32;;;32.10;62.70;;;;;;1827228;78;21161;-81
2022/11/10 06:29:15;;;;;;;12.65;10.43;;;32.10;62.00;;;;;;1827069;78;21234;-80
2022/11/10 06:31:47;;;;;;;11.60;9.85;;;32.10;62.40;;;;;;1826890;78;21212;-80
2022/11/10 06:34:18;;;;;;;14.35;10.25;;;32.00;61.40;;;;;;1827491;78;21602;-81
2022/11/10 06:36:49;;;;;;;11.25;9.35;;;32.00;61.60;;;;;;1802547;78;21230;-81
2022/11/10 06:39:20;;;;;;;15.25;10.50;;;32.10;61.60;;;;;;1827433;78;21633;-82
2022/11/10 06:41:51;;;;;;;11.60;9.33;;;32.10;61.40;;;;;;1827520;78;21665;-79
2022/11/10 06:44:22;;;;;;;12.03;9.43;;;32.10;61.10;;;;;;1827530;78;21087;-82
2022/11/10 06:46:53;;;;;;;14.07;10.05;;;32.10;61.60;;;;;;1827305;78;21130;-82
2022/11/10 06:49:25;;;;;;;10.90;9.45;;;32.10;61.60;;;;;;1743945;81;21182;-81
2022/11/10 06:51:55;;;;;;;11.50;9.55;;;32.10;61.30;;;;;;1787768;80;21230;-81
2022/11/10 06:54:26;;;;;;;13.48;11.05;;;32.10;61.20;;;;;;1797934;80;21122;-80
2022/11/10 06:57:00;;;;;;;11.70;9.95;;;32.10;61.10;;;;;;1775580;80;21297;-80
2022/11/10 06:59:34;;;;;;;12.53;10.43;;;32.10;61.40;;;;;;1791514;80;21136;-80
2022/11/10 07:02:03;;;;;;;14.00;10.63;;;32.10;61.60;;;;;;1827595;78;21201;-80
2022/11/10 07:04:34;;;;;;;11.78;9.75;;;32.10;61.20;;;;;;1810115;77;21174;-79
2022/11/10 07:07:06;;;;;;;10.93;9.53;;;32.10;61.40;;;;;;1791737;78;21111;-79
2022/11/10 07:09:38;;;;;;;13.03;10.72;;;32.10;61.40;;;;;;1785397;79;21170;-80
2022/11/10 07:12:16;;;;;;;11.68;9.85;;;32.10;61.10;;;;;;1818942;78;21102;-81
2022/11/10 07:14:47;;;;;;;11.93;9.58;;;32.10;61.40;;;;;;1800958;79;21159;-79
2022/11/10 07:17:18;;;;;;;12.58;10.30;;;32.20;61.70;;;;;;1812150;79;22286;-79
2022/11/10 07:19:48;;;;;;;14.53;10.32;;;32.10;60.90;;;;;;1816099;79;21131;-80
2022/11/10 07:22:20;;;;;;;13.22;9.90;;;32.10;61.90;;;;;;1755184;81;21242;-79
2022/11/10 07:24:51;;;;;;;11.93;9.98;;;32.00;61.90;;;;;;1746647;80;21156;-78
2022/11/10 07:27:22;;;;;;;11.38;9.78;;;32.00;61.70;;;;;;1751351;82;21187;-80
2022/11/10 07:29:53;;;;;;;13.75;10.35;;;32.00;61.60;;;;;;1751549;82;21144;-80
2022/11/10 07:32:23;;;;;;;14.63;9.63;;;31.90;61.30;;;;;;1750752;82;21627;-79
2022/11/10 07:34:54;;;;;;;15.18;10.75;;;31.80;61.70;;;;;;1773061;80;21144;-80
2022/11/10 07:37:25;;;;;;;10.82;9.73;;;31.80;62.00;;;;;;1773832;81;21602;-81
2022/11/10 07:39:55;;;;;;;10.58;9.53;;;31.80;62.00;;;;;;1769957;80;21120;-79
2022/11/10 07:42:26;;;;;;;12.70;9.00;;;31.80;61.90;;;;;;1722417;81;21231;-79
2022/11/10 07:44:58;;;;;;;12.28;9.75;;;31.80;62.20;;;;;;1737471;82;21266;-79
2022/11/10 07:47:29;;;;;;;11.43;9.20;;;31.80;61.70;;;;;;1749992;82;21656;-79
2022/11/10 07:50:00;;;;;;;12.70;9.20;;;31.80;61.90;;;;;;1792957;79;21553;-79
2022/11/10 07:52:30;;;;;;;10.48;9.48;;;31.70;61.70;;;;;;1788695;79;21267;-78
2022/11/10 07:55:02;;;;;;;13.15;8.45;;;31.70;61.80;;;;;;1779702;80;21065;-80
2022/11/10 07:57:33;;;;;;;14.30;9.23;;;31.60;61.70;;;;;;1786973;79;21098;-79
2022/11/10 08:00:05;;;;;;;10.55;8.43;;;31.60;61.80;;;;;;1808872;79;21189;-80
2022/11/10 08:02:37;;;;;;;9.60;8.60;;;31.60;61.40;;;;;;1798970;79;21192;-80
2022/11/10 08:05:08;;;;;;;13.58;9.53;;;31.60;61.40;;;;;;1713075;80;21123;-80
2022/11/10 08:07:39;;;;;;;12.85;9.10;;;31.70;61.60;;;;;;1783926;80;21083;-78
2022/11/10 08:10:11;;;;;;;10.90;8.15;;;31.70;62.10;;;;;;1826245;77;21515;-80
2022/11/10 08:12:42;;;;;;;14.53;9.05;;;31.70;61.50;;;;;;1823535;78;21163;-78
2022/11/10 08:15:14;;;;;;;11.53;8.53;;;31.70;61.30;;;;;;1823771;78;21163;-80
2022/11/10 08:17:45;;;;;;;10.70;8.53;;;31.70;61.20;;;;;;1826047;78;21146;-79
2022/11/10 08:20:16;;;;;;;15.30;8.83;;;31.70;61.20;;;;;;1827361;78;21302;-80
2022/11/10 08:22:49;;;;;;;10.25;8.75;;;31.70;61.60;;;;;;1823828;79;21106;-80
2022/11/10 08:25:19;;;;;;;9.23;8.33;;;31.60;62.70;;;;;;1823896;77;22094;-80
2022/11/10 08:27:51;;;;;;;10.18;9.08;;;31.60;61.80;;;;;;1826135;78;21216;-79
2022/11/10 08:30:23;;;;;;;11.25;8.53;;;31.60;61.90;;;;;;1829155;78;21669;-80
2022/11/10 08:32:58;;;;;;;10.82;8.93;;;31.60;62.10;;;;;;1733878;80;21168;-80
2022/11/10 08:35:31;;;;;;;18.70;8.95;;;31.60;61.90;;;;;;1765465;79;21227;-79
2022/11/10 08:38:11;;;;;;;10.78;8.93;;;31.60;61.40;;;;;;1821588;79;21655;-81
2022/11/10 08:40:44;;;;;;;10.78;8.95;;;31.60;61.30;;;;;;1821250;78;21795;-81
2022/11/10 08:43:17;;;;;;;9.60;8.60;;;31.60;61.60;;;;;;1823858;78;21624;-79
2022/11/10 08:45:49;;;;;;;9.38;8.38;;;31.60;61.70;;;;;;1818246;78;21686;-79
2022/11/10 08:48:24;;;;;;;13.68;10.10;;;31.50;62.10;;;;;;1823912;79;21202;-80
2022/11/10 08:50:54;;;;;;;12.85;9.40;;;31.60;62.40;;;;;;1825136;77;21144;-79
2022/11/10 08:53:25;;;;;;;10.00;8.58;;;31.60;62.40;;;;;;1828257;77;21724;-79
2022/11/10 08:56:00;;;;;;;10.32;8.33;;;31.60;62.40;;;;;;1826622;78;21148;-79
2022/11/10 08:58:30;;;;;;;20.50;15.60;;;31.60;62.10;;;;;;1830249;77;21181;-80
2022/11/10 09:01:01;;;;;;;25.12;22.32;;;31.60;61.90;;;;;;1818126;78;21144;-80
2022/11/10 09:03:32;;;;;;;21.40;19.02;;;31.60;62.20;;;;;;1826566;78;21221;-79
2022/11/10 09:06:05;;;;;;;12.07;9.98;;;31.60;62.00;;;;;;1819171;78;21250;-78
2022/11/10 09:08:37;;;;;;;70.37;48.95;;;31.50;62.10;;;;;;1783564;78;21196;-79
2022/11/10 09:11:07;;;;;;;23.55;17.45;;;31.50;62.20;;;;;;1798561;78;21156;-80
2022/11/10 09:13:41;;;;;;;20.23;15.25;;;31.50;62.30;;;;;;1808748;78;21085;-79
2022/11/10 09:16:12;;;;;;;20.08;13.78;;;31.40;62.60;;;;;;1797041;79;22386;-80
2022/11/10 09:18:55;;;;;;;18.32;12.73;;;31.40;62.70;;;;;;1803442;78;21129;-80
2022/11/10 09:21:25;;;;;;;11.78;10.23;;;31.40;62.80;;;;;;1808258;79;21158;-81
2022/11/10 09:23:56;;;;;;;11.15;9.43;;;31.40;63.00;;;;;;1745698;81;21660;-79
2022/11/10 09:26:27;;;;;;;11.53;9.30;;;31.30;62.50;;;;;;1767316;80;21081;-80
2022/11/10 09:28:57;;;;;;;14.20;10.25;;;31.30;62.80;;;;;;1758534;79;21714;-79
2022/11/10 09:31:28;;;;;;;14.18;10.25;;;31.20;62.50;;;;;;1736806;81;21204;-81
2022/11/10 09:33:59;;;;;;;12.10;10.18;;;31.20;62.80;;;;;;1750125;82;21219;-80
2022/11/10 09:36:30;;;;;;;10.72;9.53;;;31.20;62.60;;;;;;1757907;80;21209;-80
2022/11/10 09:39:01;;;;;;;14.47;10.32;;;31.10;62.50;;;;;;1767867;80;21168;-80
2022/11/10 09:41:32;;;;;;;12.33;9.20;;;31.10;62.40;;;;;;1753948;79;21233;-81
2022/11/10 09:44:11;;;;;;;12.20;9.05;;;31.10;62.40;;;;;;1778619;79;21147;-80
2022/11/10 09:46:51;;;;;;;15.05;9.85;;;31.10;62.40;;;;;;1779044;80;21147;-79
2022/11/10 09:49:33;;;;;;;11.18;9.35;;;31.00;63.20;;;;;;1778379;79;21128;-79
2022/11/10 09:52:05;;;;;;;16.40;9.90;;;30.90;62.80;;;;;;1785770;79;21715;-75
2022/11/10 09:54:59;;;;;;;14.20;10.18;;;30.90;62.70;;;;;;1782144;79;21154;-78
2022/11/10 09:57:31;;;;;;;11.55;9.55;;;30.90;62.80;;;;;;1727128;82;21141;-79
2022/11/10 10:00:03;;;;;;;16.25;10.85;;;30.80;62.70;;;;;;1783130;79;21170;-81
2022/11/10 10:02:39;;;;;;;19.07;11.18;;;30.80;62.80;;;;;;1770025;80;21226;-81
2022/11/10 10:05:34;;;;;;;14.18;11.28;;;30.80;63.20;;;;;;1779188;79;21218;-79
2022/11/10 10:08:08;;;;;;;15.38;11.50;;;30.70;63.30;;;;;;1777392;79;21155;-76
2022/11/10 10:10:53;;;;;;;14.83;11.12;;;30.70;63.40;;;;;;1820827;78;21239;-76
2022/11/10 10:13:43;;;;;;;14.70;10.00;;;30.60;63.50;;;;;;1809400;78;21686;-77
2022/11/10 10:16:22;;;;;;;16.80;10.80;;;30.60;63.30;;;;;;1794050;78;21148;-77
2022/11/10 10:19:29;;;;;;;17.55;12.75;;;30.50;63.70;;;;;;1791991;78;21124;-77
2022/11/10 10:22:06;;;;;;;15.50;11.20;;;30.50;63.80;;;;;;1803267;77;21270;-74
2022/11/10 10:24:38;;;;;;;18.00;12.05;;;30.50;64.00;;;;;;1824527;78;21189;-76
2022/11/10 10:27:12;;;;;;;12.18;9.55;;;30.50;64.10;;;;;;1826938;78;21202;-75
2022/11/10 10:29:45;;;;;;;16.15;10.18;;;30.40;63.90;;;;;;1812317;77;21119;-76
2022/11/10 10:32:17;;;;;;;13.30;10.63;;;30.40;64.20;;;;;;1817542;78;21606;-75
2022/11/10 10:34:48;;;;;;;18.85;11.88;;;30.40;64.20;;;;;;1812939;78;21235;-77
2022/11/10 10:37:22;;;;;;;16.77;10.65;;;30.30;64.40;;;;;;1821343;77;21534;-76
2022/11/10 10:39:55;;;;;;;14.50;10.03;;;30.30;64.30;;;;;;1826771;77;21637;-76
2022/11/10 10:42:34;;;;;;;15.48;10.63;;;30.30;64.90;;;;;;1826431;78;21095;-74
2022/11/10 10:45:17;;;;;;;12.80;9.83;;;30.20;64.80;;;;;;1839371;77;21137;-74
2022/11/10 10:47:50;;;;;;;13.53;10.68;;;30.20;65.10;;;;;;1836760;78;21117;-75
2022/11/10 10:50:33;;;;;;;16.32;10.65;;;30.20;65.50;;;;;;1823971;77;21669;-75
2022/11/10 10:53:15;;;;;;;15.70;10.08;;;30.10;65.80;;;;;;1817998;78;21256;-75
2022/11/10 10:56:00;;;;;;;19.77;11.43;;;30.00;66.20;;;;;;1803251;78;21169;-75
2022/11/10 10:58:33;;;;;;;15.83;10.23;;;30.00;66.50;;;;;;1813301;77;21268;-74
2022/11/10 11:01:18;;;;;;;18.70;11.48;;;30.00;66.90;;;;;;1825175;78;21174;-75
2022/11/10 11:03:51;;;;;;;15.75;10.95;;;29.90;67.90;;;;;;1837154;78;21140;-77
2022/11/10 11:06:25;;;;;;;25.02;12.00;;;29.80;67.00;;;;;;1844013;78;21144;-76
2022/11/10 11:09:11;;;;;;;19.07;11.45;;;29.80;67.20;;;;;;1831251;77;21130;-76
2022/11/10 11:11:50;;;;;;;18.50;11.85;;;29.80;67.40;;;;;;1805655;78;21180;-76
2022/11/10 11:14:20;;;;;;;16.00;10.90;;;29.80;67.50;;;;;;1819734;78;21219;-76
2022/11/10 11:17:05;;;;;;;16.82;11.85;;;29.70;67.60;;;;;;1837887;78;21558;-74
2022/11/10 11:19:38;;;;;;;18.12;11.30;;;29.70;67.50;;;;;;1835785;78;21195;-76
2022/11/10 11:22:36;;;;;;;18.50;11.28;;;29.60;67.90;;;;;;1831303;77;21161;-76
2022/11/10 11:25:28;;;;;;;15.32;11.80;;;29.60;68.00;;;;;;1822469;78;21121;-78
2022/11/10 11:28:22;;;;;;;20.70;13.30;;;29.50;68.20;;;;;;1821036;78;21683;-75
2022/11/10 11:30:57;;;;;;;18.12;13.30;;;29.50;68.30;;;;;;1821194;78;21918;-76
2022/11/10 11:33:43;;;;;;;20.00;13.88;;;29.50;68.70;;;;;;1818604;78;21162;-77
2022/11/10 11:36:22;;;;;;;19.10;14.25;;;29.40;68.50;;;;;;1812431;77;21567;-75
2022/11/10 11:39:05;;;;;;;22.60;14.35;;;29.40;68.90;;;;;;1810802;78;21157;-75
2022/11/10 11:41:48;;;;;;;23.92;14.98;;;29.40;69.00;;;;;;1812497;78;21605;-78
2022/11/10 11:44:39;;;;;;;26.57;14.28;;;29.30;68.30;;;;;;1807612;79;21177;-75
2022/11/10 11:47:36;;;;;;;21.97;15.00;;;29.30;69.20;;;;;;1805484;77;21099;-75
2022/11/10 11:50:21;;;;;;;21.25;16.25;;;29.30;69.10;;;;;;1813257;79;21127;-75
2022/11/10 11:53:10;;;;;;;19.70;15.70;;;29.20;69.20;;;;;;1812962;79;21115;-76
2022/11/10 11:56:22;;;;;;;21.65;15.75;;;29.20;69.30;;;;;;1810188;79;21170;-76
2022/11/10 11:59:24;;;;;;;27.93;15.38;;;29.20;69.00;;;;;;1748003;82;21911;-75
2022/11/10 12:02:19;;;;;;;22.40;14.40;;;29.20;69.10;;;;;;1747066;81;21254;-77
2022/11/10 12:05:17;;;;;;;23.10;14.93;;;29.20;69.00;;;;;;1748092;81;21171;-74
2022/11/10 12:08:04;;;;;;;22.35;14.10;;;29.20;68.70;;;;;;1746095;82;21134;-77
2022/11/10 12:10:38;;;;;;;19.23;14.13;;;29.20;68.70;;;;;;1748112;81;21180;-75
2022/11/10 12:13:42;;;;;;;24.70;13.85;;;29.20;68.30;;;;;;1750413;81;21176;-76
2022/11/10 12:16:30;;;;;;;18.95;13.48;;;29.20;68.20;;;;;;1770389;81;21201;-75
2022/11/10 12:19:23;;;;;;;21.77;13.98;;;29.20;68.40;;;;;;1775772;80;21695;-77
2022/11/10 12:21:57;;;;;;;21.90;15.28;;;29.20;68.50;;;;;;1722833;83;21827;-73
2022/11/10 12:24:48;;;;;;;23.65;15.05;;;29.20;69.00;;;;;;1719029;81;21217;-84
2022/11/10 12:27:37;;;;;;;26.87;17.25;;;29.10;69.10;;;;;;1761844;81;21686;-86
2022/11/10 12:30:23;;;;;;;28.92;19.15;;;29.10;69.30;;;;;;1745190;82;21136;-86
2022/11/10 12:33:07;;;;;;;26.00;19.42;;;29.10;69.50;;;;;;1770735;81;21154;-84
2022/11/10 12:35:51;;;;;;;24.32;17.37;;;29.00;69.60;;;;;;1772448;80;21244;-84
2022/11/10 12:38:36;;;;;;;26.23;17.80;;;29.00;69.60;;;;;;1771422;81;21127;-86
2022/11/10 12:41:24;;;;;;;;;;;29.00;69.70;;;;;;1752837;81;21685;-85
2022/11/10 12:44:00;;;;;;;24.05;15.80;;;29.00;69.50;;;;;;1748140;81;20428;-85
2022/11/10 12:46:33;;;;;;;22.95;16.50;;;29.00;69.90;;;;;;1751082;81;21145;-85
2022/11/10 12:49:13;;;;;;;24.43;17.00;;;29.00;70.00;;;;;;1758628;81;21751;-85
2022/11/10 12:52:16;;;;;;;25.48;16.17;;;28.90;70.00;;;;;;1752619;80;21149;-84
2022/11/10 12:54:54;;;;;;;30.95;16.82;;;28.90;70.30;;;;;;1656989;85;21229;-85
2022/11/10 12:57:38;;;;;;;22.35;16.12;;;28.90;70.40;;;;;;1800365;79;21130;-85
2022/11/10 13:00:39;;;;;;;25.65;17.10;;;28.90;70.70;;;;;;1818056;79;21162;-84
2022/11/10 13:09:09;;;;;;;21.77;17.32;;;28.80;71.30;;;;;;1682327;78;21167;-85
2022/11/10 13:11:46;;;;;;;26.42;17.10;;;28.70;71.50;;;;;;1815818;78;21119;-86
2022/11/10 13:14:26;;;;;;;26.80;16.95;;;28.60;71.60;;;;;;1815478;78;21178;-84
2022/11/10 13:17:02;;;;;;;27.10;17.02;;;28.60;72.20;;;;;;1817597;77;21154;-86
2022/11/10 13:19:51;;;;;;;34.67;18.45;;;28.50;72.10;;;;;;1814333;79;21678;-86
2022/11/10 13:22:39;;;;;;;24.18;16.57;;;28.40;72.30;;;;;;1814157;78;21155;-85
2022/11/10 13:25:40;;;;;;;23.90;16.77;;;28.40;72.40;;;;;;1817498;79;21127;-85
2022/11/10 13:28:18;;;;;;;27.67;16.87;;;28.40;72.70;;;;;;1726316;83;21148;-84
2022/11/10 13:30:52;;;;;;;;;;;28.30;72.60;;;;;;1734207;82;21168;-85